Time;durP1;ratioP1;P1;durP2;ratioP2;P2;SDS_P1;SDS_P2;PMS_P1;PMS_P2;Temp;Humidity;BMP_temperature;BMP_pressure;BME280_temperature;BME280_humidity;BME280_pressure;Samples;Min_cycle;Max_cycle;Signal;HPM_P1;HPM_P2
2021/11/09 00:00:58;;;;;;;31.50;17.55;;;282.40;2278.40;;;;;;5003026;28;20061;-78
2021/11/09 00:03:24;;;;;;;28.40;18.42;;;282.40;2278.40;;;;;;5001636;28;20026;-76
2021/11/09 00:05:58;;;;;;;28.20;16.80;;;282.40;2278.40;;;;;;4999950;28;20023;-75
2021/11/09 00:08:27;;;;;;;33.45;18.15;;;282.30;2278.40;;;;;;5001207;28;20474;-77
2021/11/09 00:10:53;;;;;;;33.38;18.70;;;282.40;2278.40;;;;;;4997227;28;20506;-75
2021/11/09 00:13:20;;;;;;;31.50;18.88;;;282.30;2278.40;;;;;;4984415;28;20050;-77
2021/11/09 00:15:47;;;;;;;31.35;19.33;;;282.30;2278.40;;;;;;5004271;28;20018;-76
2021/11/09 00:18:12;;;;;;;32.22;19.30;;;282.20;2278.40;;;;;;5003483;28;20077;-77
2021/11/09 00:20:40;;;;;;;33.95;19.65;;;282.20;2278.40;;;;;;5000120;28;20027;-77
2021/11/09 00:23:07;;;;;;;31.67;19.45;;;282.20;2278.40;;;;;;5002827;28;20049;-77
2021/11/09 00:25:34;;;;;;;27.67;20.00;;;282.20;2278.40;;;;;;5003531;28;20474;-76
2021/11/09 00:28:00;;;;;;;34.40;20.45;;;282.30;2278.40;;;;;;5004161;28;20057;-74
2021/11/09 00:30:27;;;;;;;38.97;19.98;;;282.30;2278.40;;;;;;5005201;28;20037;-79
2021/11/09 00:32:54;;;;;;;27.40;18.77;;;282.20;2278.40;;;;;;5003546;28;20379;-75
2021/11/09 00:35:23;;;;;;;32.00;21.27;;;282.30;2278.40;;;;;;5006444;28;20023;-75
2021/11/09 00:37:50;;;;;;;30.95;20.63;;;282.30;2278.40;;;;;;5006341;28;20535;-79
2021/11/09 00:40:18;;;;;;;35.13;20.42;;;282.00;2278.40;;;;;;5002281;28;20026;-79
2021/11/09 00:42:44;;;;;;;33.13;21.05;;;282.30;2278.40;;;;;;5004793;28;20021;-77
2021/11/09 00:45:11;;;;;;;37.80;21.38;;;282.30;2278.40;;;;;;5000990;28;20054;-80
2021/11/09 00:47:38;;;;;;;32.38;21.65;;;282.20;2278.40;;;;;;5004859;28;20026;-79
2021/11/09 00:50:07;;;;;;;38.40;23.92;;;282.30;2278.40;;;;;;5004014;28;20532;-75
2021/11/09 00:52:33;;;;;;;36.35;24.30;;;282.30;2278.40;;;;;;5003297;28;20037;-80
2021/11/09 00:54:59;;;;;;;39.90;22.70;;;282.30;2278.40;;;;;;4987112;28;20394;-79
2021/11/09 00:57:25;;;;;;;40.05;23.13;;;282.30;2278.40;;;;;;5004074;28;20054;-79
2021/11/09 00:59:51;;;;;;;36.70;20.40;;;282.30;2278.40;;;;;;5002843;28;20030;-76
2021/11/09 01:02:17;;;;;;;32.53;22.70;;;282.30;2278.40;;;;;;5005266;28;20022;-78
2021/11/09 01:04:43;;;;;;;34.28;20.92;;;282.30;2278.40;;;;;;5003905;28;20070;-75
2021/11/09 01:07:09;;;;;;;31.88;20.35;;;282.30;2278.40;;;;;;5001217;28;20101;-76
2021/11/09 01:09:35;;;;;;;28.45;18.75;;;282.30;2278.40;;;;;;5004594;28;20072;-75
2021/11/09 01:12:03;;;;;;;35.85;22.15;;;282.30;2278.40;;;;;;5003488;28;20534;-77
2021/11/09 01:14:30;;;;;;;43.72;22.30;;;282.20;2278.40;;;;;;5005546;28;20089;-79
2021/11/09 01:16:56;;;;;;;28.92;20.05;;;282.30;2278.40;;;;;;5002005;28;20030;-77
2021/11/09 01:19:23;;;;;;;30.35;19.33;;;282.30;2278.40;;;;;;5005165;28;20065;-79
2021/11/09 01:21:51;;;;;;;31.88;19.92;;;282.20;2278.40;;;;;;5004282;28;20072;-74
2021/11/09 01:24:18;;;;;;;37.85;22.77;;;282.30;2278.40;;;;;;5004283;28;20030;-80
2021/11/09 01:26:45;;;;;;;35.22;22.67;;;282.30;2278.40;;;;;;5004593;28;20420;-76
2021/11/09 01:29:12;;;;;;;39.65;23.73;;;282.30;2278.40;;;;;;5004117;28;20057;-75
2021/11/09 01:31:38;;;;;;;37.53;22.65;;;282.10;2278.40;;;;;;4999639;28;20054;-77
2021/11/09 01:34:05;;;;;;;39.25;23.95;;;282.20;2278.40;;;;;;5002208;28;20053;-80
2021/11/09 01:36:31;;;;;;;38.85;24.80;;;282.10;2278.40;;;;;;5004665;28;20032;-76
2021/11/09 01:38:58;;;;;;;34.50;22.27;;;282.00;2278.40;;;;;;4996044;28;20049;-75
2021/11/09 01:41:25;;;;;;;33.17;21.40;;;282.10;2278.40;;;;;;5003265;28;20070;-76
2021/11/09 01:43:52;;;;;;;32.35;20.58;;;282.20;2278.40;;;;;;4998544;28;20377;-75
2021/11/09 01:46:19;;;;;;;34.30;21.20;;;282.10;2278.40;;;;;;4999448;28;20042;-75
2021/11/09 01:48:45;;;;;;;33.88;21.20;;;282.20;2278.40;;;;;;4987278;28;20388;-75
2021/11/09 01:51:14;;;;;;;32.35;20.33;;;282.10;2278.40;;;;;;5002067;28;20037;-80
2021/11/09 01:53:43;;;;;;;32.42;20.33;;;282.10;2278.40;;;;;;5000420;28;20148;-75
2021/11/09 01:56:12;;;;;;;34.55;20.13;;;282.10;2278.40;;;;;;5002253;28;20022;-77
2021/11/09 01:58:38;;;;;;;32.88;19.45;;;282.10;2278.40;;;;;;4998656;28;20276;-75
2021/11/09 02:01:11;;;;;;;34.00;20.40;;;282.20;2278.40;;;;;;5002747;28;20033;-75
2021/11/09 02:03:40;;;;;;;25.08;17.80;;;282.10;2278.40;;;;;;5001413;28;20061;-75
2021/11/09 02:06:06;;;;;;;36.80;20.38;;;282.10;2278.40;;;;;;5002927;28;20029;-78
2021/11/09 02:08:32;;;;;;;32.58;19.10;;;282.10;2278.40;;;;;;5003459;28;20494;-75
2021/11/09 02:10:58;;;;;;;32.90;19.48;;;282.00;2278.40;;;;;;5001413;28;20026;-75
2021/11/09 02:13:25;;;;;;;30.70;19.58;;;282.00;2278.40;;;;;;5001633;28;20038;-76
2021/11/09 02:15:52;;;;;;;28.52;18.33;;;281.90;2278.40;;;;;;5002168;28;20021;-74
2021/11/09 02:18:20;;;;;;;34.13;20.05;;;281.90;2278.40;;;;;;5001713;28;20018;-75
2021/11/09 02:20:54;;;;;;;30.48;20.30;;;282.00;2278.40;;;;;;5002797;28;20441;-74
2021/11/09 02:23:20;;;;;;;33.83;20.73;;;281.90;2278.40;;;;;;4999173;28;20018;-75
2021/11/09 02:25:46;;;;;;;32.42;20.20;;;281.80;2278.40;;;;;;5004058;28;20032;-75
2021/11/09 02:28:11;;;;;;;33.47;20.45;;;281.90;2278.40;;;;;;5001516;28;20054;-79
2021/11/09 02:30:37;;;;;;;33.60;19.92;;;281.80;2278.40;;;;;;5003165;28;20034;-75
2021/11/09 02:33:03;;;;;;;;;;;281.70;2278.40;;;;;;5002164;28;20046;-74
2021/11/09 02:35:29;;;;;;;25.70;18.23;;;281.80;2278.40;;;;;;5001230;28;20362;-79
2021/11/09 02:37:58;;;;;;;34.35;20.27;;;281.70;2278.40;;;;;;5000862;28;20105;-76
2021/11/09 02:40:24;;;;;;;31.42;18.13;;;281.70;2278.40;;;;;;4986060;28;20039;-75
2021/11/09 02:42:57;;;;;;;28.65;17.52;;;281.80;2278.40;;;;;;4999612;28;20031;-83
2021/11/09 02:48:44;;;;;;;27.67;17.92;;;256.90;2252.80;;;;;;5003321;28;20032;-77
2021/11/09 02:51:17;;;;;;;35.53;19.45;;;281.60;2278.40;;;;;;5012486;28;20069;-78
2021/11/09 02:53:53;;;;;;;35.75;18.52;;;281.60;2278.40;;;;;;5013261;28;20483;-74
2021/11/09 02:56:26;;;;;;;31.42;18.48;;;281.70;2278.40;;;;;;5003917;28;20021;-78
2021/11/09 02:59:08;;;;;;;31.73;16.73;;;281.70;2278.40;;;;;;5000474;28;20014;-75
2021/11/09 03:01:42;;;;;;;28.02;19.02;;;281.70;2278.40;;;;;;5002629;28;20076;-76
2021/11/09 03:04:15;;;;;;;31.80;18.23;;;281.60;2278.40;;;;;;5000540;28;20029;-76
2021/11/09 03:07:05;;;;;;;32.85;18.73;;;281.60;2278.40;;;;;;4998621;28;20046;-75
2021/11/09 03:09:47;;;;;;;26.35;16.38;;;281.80;2278.40;;;;;;5001101;28;20019;-75
2021/11/09 03:12:14;;;;;;;29.70;16.58;;;281.70;2278.40;;;;;;4974382;28;20049;-78
2021/11/09 03:14:41;;;;;;;24.05;16.77;;;281.80;2278.40;;;;;;4972950;28;20045;-76
2021/11/09 03:17:37;;;;;;;26.73;16.80;;;281.70;2278.40;;;;;;4982576;28;20109;-75
2021/11/09 03:19:57;;;;;;;30.40;17.85;;;281.70;2278.40;;;;;;5000966;28;20550;-79
2021/11/09 03:44:43;;;;;;;29.17;18.60;;;281.70;2278.40;;;;;;4922696;28;20099;-77
2021/11/09 03:47:12;;;;;;;42.00;25.50;;;281.70;2278.40;;;;;;4922553;29;20115;-74
2021/11/09 03:49:39;;;;;;;27.92;17.60;;;281.70;2278.40;;;;;;4923471;29;20503;-76
2021/11/09 03:52:11;;;;;;;30.17;19.73;;;281.80;2278.40;;;;;;4929733;29;20050;-76
2021/11/09 03:54:38;;;;;;;31.90;19.58;;;281.70;2278.40;;;;;;4926938;29;20024;-74
2021/11/09 04:05:08;;;;;;;25.98;15.25;;;281.70;2278.40;;;;;;4945431;28;20404;-80
2021/11/09 04:10:31;;;;;;;26.52;16.45;;;281.70;2278.40;;;;;;4962577;28;20054;-75
2021/11/09 04:20:55;;;;;;;22.30;14.57;;;281.60;2278.40;;;;;;4963064;28;20108;-74
2021/11/09 04:45:45;;;;;;;26.30;16.60;;;256.80;2252.80;;;;;;4964903;28;20221;-79
2021/11/09 05:11:41;;;;;;;33.83;20.25;;;281.70;2278.40;;;;;;4983503;28;20046;-76
2021/11/09 05:14:07;;;;;;;34.95;19.88;;;281.70;2278.40;;;;;;4981414;28;20023;-83
2021/11/09 05:16:34;;;;;;;47.83;25.45;;;281.80;2278.40;;;;;;4984518;28;20037;-77
2021/11/09 05:19:00;;;;;;;48.95;28.20;;;281.80;2278.40;;;;;;4985097;28;20430;-75
2021/11/09 05:21:26;;;;;;;44.20;24.05;;;281.80;2278.40;;;;;;4983375;28;20027;-79
2021/11/09 05:23:52;;;;;;;64.80;29.48;;;281.70;2278.40;;;;;;4981968;28;20089;-76
2021/11/09 05:26:18;;;;;;;62.47;33.58;;;281.90;2278.40;;;;;;4982232;28;20397;-84
2021/11/09 05:28:45;;;;;;;57.65;33.35;;;281.90;2278.40;;;;;;4985016;28;20030;-79
2021/11/09 05:31:13;;;;;;;56.75;33.75;;;281.90;2278.40;;;;;;4984152;28;20031;-82
2021/11/09 05:33:39;;;;;;;37.30;22.40;;;282.00;2278.40;;;;;;4983988;28;20054;-84
2021/11/09 05:36:07;;;;;;;28.85;16.40;;;281.90;2278.40;;;;;;4984734;28;20030;-82
2021/11/09 05:38:57;;;;;;;28.92;20.27;;;281.80;2278.40;;;;;;4983367;28;20029;-79
2021/11/09 05:41:24;;;;;;;28.73;18.08;;;282.00;2278.40;;;;;;4965193;28;20043;-82
2021/11/09 05:43:50;;;;;;;31.80;16.48;;;282.00;2278.40;;;;;;4983688;28;20018;-80
2021/11/09 05:46:15;;;;;;;27.95;16.52;;;281.90;2278.40;;;;;;5002703;28;20050;-79
2021/11/09 05:48:41;;;;;;;;;;;281.90;2278.40;;;;;;4987693;28;20076;-76
2021/11/09 05:51:09;;;;;;;26.55;15.75;;;282.00;2278.40;;;;;;4993241;28;19913;-75
2021/11/09 05:53:35;;;;;;;28.88;16.58;;;281.90;2278.40;;;;;;4993502;28;20010;-76
2021/11/09 05:56:03;;;;;;;30.10;17.75;;;281.90;2278.40;;;;;;4994120;28;20043;-83
2021/11/09 05:58:29;;;;;;;30.95;17.70;;;256.90;2252.80;;;;;;4993407;28;20061;-83
2021/11/09 06:00:55;;;;;;;35.80;18.67;;;256.90;2252.80;;;;;;4994043;28;20026;-76
2021/11/09 06:03:23;;;;;;;31.20;17.38;;;281.60;2278.40;;;;;;4993692;28;20018;-78
2021/11/09 06:05:53;;;;;;;28.35;17.85;;;281.70;2278.40;;;;;;4994346;28;20105;-75
2021/11/09 06:08:19;;;;;;;42.42;25.55;;;281.80;2278.40;;;;;;4994035;28;20026;-76
2021/11/09 06:10:46;;;;;;;36.80;22.08;;;281.70;2278.40;;;;;;4996962;28;20030;-75
2021/11/09 06:13:12;;;;;;;35.22;19.73;;;281.70;2278.40;;;;;;5000908;28;20033;-75
2021/11/09 06:15:38;;;;;;;33.38;19.65;;;281.70;2278.40;;;;;;5014799;28;20103;-81
2021/11/09 06:18:04;;;;;;;;;;;281.80;2278.40;;;;;;4983662;28;20018;-75
2021/11/09 06:20:29;;;;;;;32.97;20.90;;;281.80;2278.40;;;;;;4992951;28;19909;-78
2021/11/09 06:22:56;;;;;;;36.63;23.10;;;281.80;2278.40;;;;;;4993394;28;20101;-76
2021/11/09 06:25:23;;;;;;;34.65;19.77;;;281.70;2278.40;;;;;;4992843;28;20065;-75
2021/11/09 06:27:52;;;;;;;32.15;20.08;;;281.70;2278.40;;;;;;4993081;28;20026;-75
2021/11/09 06:30:19;;;;;;;32.60;20.25;;;256.90;2252.80;;;;;;4992968;28;20038;-77
2021/11/09 06:32:44;;;;;;;33.20;20.73;;;281.60;2278.40;;;;;;4993363;28;20541;-75
2021/11/09 06:35:10;;;;;;;27.00;18.75;;;281.70;2278.40;;;;;;4993300;28;20026;-81
2021/11/09 06:37:36;;;;;;;;;;;281.80;2278.40;;;;;;4993264;28;20023;-75
2021/11/09 06:40:05;;;;;;;31.30;18.98;;;281.90;2278.40;;;;;;4993134;28;19910;-83
2021/11/09 06:42:32;;;;;;;33.65;19.92;;;281.90;2278.40;;;;;;4992619;28;20022;-76
2021/11/09 06:44:58;;;;;;;35.20;21.42;;;282.00;2278.40;;;;;;4992997;28;20065;-81
2021/11/09 06:47:24;;;;;;;35.20;21.70;;;282.00;2278.40;;;;;;4992837;28;20061;-81
2021/11/09 06:49:49;;;;;;;;;;;282.00;2278.40;;;;;;4993074;28;20490;-77
2021/11/09 06:52:15;;;;;;;28.98;19.75;;;282.00;2278.40;;;;;;4992687;28;19917;-75
2021/11/09 06:54:43;;;;;;;39.95;21.73;;;282.00;2278.40;;;;;;4993189;28;20026;-83
2021/11/09 06:57:09;;;;;;;31.00;21.17;;;281.60;2278.40;;;;;;4975149;28;20069;-82
2021/11/09 06:59:35;;;;;;;28.95;19.48;;;281.70;2278.40;;;;;;4975665;28;20034;-75
2021/11/09 07:02:01;;;;;;;29.67;19.25;;;281.80;2278.40;;;;;;4992702;28;20109;-75
2021/11/09 07:04:26;;;;;;;;;;;281.60;2278.40;;;;;;4993136;28;20033;-75
2021/11/09 07:06:52;;;;;;;27.50;18.52;;;281.60;2278.40;;;;;;4992902;28;20024;-83
2021/11/09 07:09:18;;;;;;;;;;;256.90;2252.80;;;;;;4982484;28;20037;-75
2021/11/09 07:11:45;;;;;;;34.50;20.15;;;281.70;2278.40;;;;;;4999842;28;19914;-77
2021/11/09 07:14:10;;;;;;;34.47;22.35;;;256.90;2252.80;;;;;;4992524;28;20214;-77
2021/11/09 07:16:37;;;;;;;31.27;20.20;;;281.70;2278.40;;;;;;4985613;28;20161;-79
2021/11/09 07:19:04;;;;;;;36.03;19.25;;;281.60;2278.40;;;;;;4989883;28;20027;-78
2021/11/09 07:21:31;;;;;;;29.73;18.73;;;256.90;2252.80;;;;;;4998813;28;20026;-78
2021/11/09 07:23:57;;;;;;;33.45;19.05;;;281.80;2278.40;;;;;;4988849;28;20527;-78
2021/11/09 07:26:25;;;;;;;34.85;19.55;;;256.80;2252.80;;;;;;5006798;28;20121;-79
2021/11/09 07:28:51;;;;;;;30.13;19.30;;;256.60;2252.80;;;;;;5000937;28;20021;-79
2021/11/09 07:31:18;;;;;;;33.35;18.50;;;256.70;2252.80;;;;;;4980450;28;20065;-76
2021/11/09 07:33:45;;;;;;;31.30;20.17;;;256.80;2252.80;;;;;;4990095;28;20034;-76
2021/11/09 07:36:11;;;;;;;39.85;21.20;;;281.60;2278.40;;;;;;4980530;28;20030;-78
2021/11/09 07:38:37;;;;;;;50.63;22.65;;;281.70;2278.40;;;;;;4976815;28;20031;-76
2021/11/09 07:41:03;;;;;;;38.72;23.10;;;281.60;2278.40;;;;;;4976558;28;20517;-77
2021/11/09 07:43:29;;;;;;;36.47;21.83;;;281.70;2278.40;;;;;;4976899;28;20019;-77
2021/11/09 07:45:55;;;;;;;40.47;23.58;;;281.70;2278.40;;;;;;4976302;28;20134;-77
2021/11/09 07:48:21;;;;;;;42.67;22.92;;;281.80;2278.40;;;;;;4976708;28;20054;-76
2021/11/09 07:50:48;;;;;;;45.08;22.75;;;281.70;2278.40;;;;;;4990968;28;20057;-76
2021/11/09 07:53:16;;;;;;;49.85;30.73;;;281.70;2278.40;;;;;;4988818;28;20433;-77
2021/11/09 07:55:49;;;;;;;36.75;27.70;;;281.90;2278.40;;;;;;5004305;28;20030;-76
2021/11/09 08:01:12;;;;;;;29.67;17.90;;;281.80;2278.40;;;;;;4999520;28;20033;-76
2021/11/09 08:03:49;;;;;;;26.98;16.83;;;281.90;2278.40;;;;;;4995976;28;20101;-78
2021/11/09 08:06:21;;;;;;;26.15;15.13;;;281.90;2278.40;;;;;;4995348;28;20034;-77
2021/11/09 08:11:22;;;;;;;29.25;16.23;;;281.90;2278.40;;;;;;5000844;28;20088;-76
2021/11/09 08:13:48;;;;;;;28.75;18.45;;;282.00;2278.40;;;;;;5012195;28;20022;-76
2021/11/09 08:16:14;;;;;;;27.13;15.07;;;282.00;2278.40;;;;;;4981111;28;20034;-77
2021/11/09 08:18:40;;;;;;;32.13;15.73;;;281.90;2278.40;;;;;;4995139;28;20152;-76
2021/11/09 08:21:07;;;;;;;25.15;16.00;;;281.70;2278.40;;;;;;4995347;28;20101;-75
2021/11/09 08:23:33;;;;;;;28.17;14.43;;;281.80;2278.40;;;;;;4995130;28;20076;-75
2021/11/09 08:25:59;;;;;;;25.40;14.48;;;281.70;2278.40;;;;;;4995899;28;20026;-76
2021/11/09 08:28:24;;;;;;;;;;;281.80;2278.40;;;;;;4978940;28;20041;-76
2021/11/09 08:30:54;;;;;;;21.25;14.98;;;281.70;2278.40;;;;;;4994160;28;19917;-76
2021/11/09 08:33:23;;;;;;;25.48;15.25;;;281.60;2278.40;;;;;;4994775;28;20098;-75
2021/11/09 08:35:48;;;;;;;29.77;15.43;;;281.60;2278.40;;;;;;4981378;28;20023;-75
2021/11/09 08:38:16;;;;;;;31.75;19.35;;;281.70;2278.40;;;;;;4975754;28;20402;-75
2021/11/09 08:40:43;;;;;;;26.88;16.27;;;281.70;2278.40;;;;;;4982605;28;20022;-75
2021/11/09 08:43:10;;;;;;;28.05;16.67;;;281.60;2278.40;;;;;;4994978;28;20081;-76
2021/11/09 08:45:49;;;;;;;24.70;13.70;;;281.60;2278.40;;;;;;4985705;28;20054;-76
2021/11/09 08:48:17;;;;;;;28.20;15.77;;;281.60;2278.40;;;;;;4994962;28;20101;-76
2021/11/09 08:50:43;;;;;;;25.90;15.60;;;256.90;2252.80;;;;;;4994551;28;20037;-77
2021/11/09 08:53:31;;;;;;;29.80;16.80;;;281.60;2278.40;;;;;;4980879;28;20471;-75
2021/11/09 09:06:32;;;;;;;20.05;12.77;;;281.80;2278.40;;;;;;4994817;28;20374;-76
2021/11/09 09:09:00;;;;;;;26.60;13.18;;;281.60;2278.40;;;;;;4992899;28;20041;-77
2021/11/09 09:11:26;;;;;;;21.98;13.32;;;281.60;2278.40;;;;;;4994385;28;20150;-76
2021/11/09 09:13:52;;;;;;;22.33;12.88;;;281.60;2278.40;;;;;;4994336;28;20022;-78
2021/11/09 09:16:18;;;;;;;21.90;12.70;;;256.90;2252.80;;;;;;4990000;28;20601;-76
2021/11/09 09:18:44;;;;;;;24.85;11.82;;;256.80;2252.80;;;;;;4991604;28;20046;-75
2021/11/09 09:21:18;;;;;;;21.67;10.70;;;281.60;2278.40;;;;;;4976070;28;20054;-76
2021/11/09 09:23:57;;;;;;;18.08;11.20;;;281.80;2278.40;;;;;;4991763;28;20079;-75
2021/11/09 09:26:36;;;;;;;19.05;10.98;;;282.00;2278.40;;;;;;4973999;28;20047;-75
2021/11/09 09:31:50;;;;;;;21.48;11.63;;;282.20;2278.40;;;;;;4994830;28;20398;-75
2021/11/09 09:53:58;;;;;;;23.10;14.05;;;307.20;2304.00;;;;;;4991626;28;20037;-75
2021/11/09 09:56:31;;;;;;;19.35;11.50;;;282.30;2278.40;;;;;;4988987;28;20038;-76
2021/11/09 09:58:56;;;;;;;24.42;13.88;;;307.50;2304.00;;;;;;4989805;28;20019;-75
2021/11/09 10:01:22;;;;;;;23.30;14.45;;;307.80;2304.00;;;;;;4992729;28;20438;-76
2021/11/09 10:03:48;;;;;;;21.95;13.20;;;307.80;2304.00;;;;;;4975438;28;20022;-76
2021/11/09 10:06:14;;;;;;;20.55;12.57;;;332.80;2329.60;;;;;;4992743;28;20026;-76
2021/11/09 10:08:47;;;;;;;17.80;10.88;;;332.90;2329.60;;;;;;4992504;28;20045;-75
2021/11/09 10:11:33;;;;;;;25.33;14.05;;;333.20;2329.60;;;;;;4989428;28;20043;-77
2021/11/09 10:14:01;;;;;;;33.10;15.20;;;333.10;2329.60;;;;;;4988034;28;20034;-75
2021/11/09 10:16:26;;;;;;;24.77;13.52;;;333.00;2329.60;;;;;;4992850;28;20018;-76
2021/11/09 10:19:00;;;;;;;18.50;12.00;;;333.40;2329.60;;;;;;4991848;28;20491;-76
2021/11/09 10:21:38;;;;;;;22.73;11.98;;;358.40;2329.60;;;;;;4974774;28;20019;-75
2021/11/09 10:24:24;;;;;;;20.75;10.70;;;358.60;2329.60;;;;;;4973434;28;20062;-75
2021/11/09 10:26:50;;;;;;;18.27;10.48;;;358.90;2329.60;;;;;;4987828;28;20054;-75
2021/11/09 10:29:16;;;;;;;18.98;11.05;;;358.80;2329.60;;;;;;4975637;28;20061;-79
2021/11/09 10:31:42;;;;;;;16.45;10.05;;;358.80;2329.60;;;;;;4993372;28;20607;-87
2021/11/09 10:34:29;;;;;;;23.00;9.93;;;359.10;2329.60;;;;;;4983352;28;20383;-85
2021/11/09 10:37:27;;;;;;;19.90;10.85;;;359.20;2329.60;;;;;;4982595;28;20382;-77
2021/11/09 10:40:00;;;;;;;15.93;9.50;;;384.20;2329.60;;;;;;4997127;28;20034;-84
2021/11/09 10:42:27;;;;;;;17.48;9.40;;;384.00;2329.60;;;;;;4992967;28;20077;-79
2021/11/09 10:45:08;;;;;;;57.50;34.53;;;359.10;2329.60;;;;;;4993031;28;20078;-83
2021/11/09 10:47:35;;;;;;;16.60;11.13;;;358.80;2329.60;;;;;;4993162;28;20065;-77
2021/11/09 10:50:08;;;;;;;17.17;11.63;;;358.90;2329.60;;;;;;4975429;28;20505;-79
2021/11/09 10:52:37;;;;;;;16.02;9.93;;;384.00;2329.60;;;;;;4971503;28;20077;-77
2021/11/09 10:55:19;;;;;;;15.77;10.27;;;359.20;2329.60;;;;;;4989902;28;20037;-76
2021/11/09 11:06:29;;;;;;;16.40;9.07;;;359.00;2329.60;;;;;;4959898;28;20035;-79
2021/11/09 11:09:14;;;;;;;16.95;9.82;;;359.20;2329.60;;;;;;4961888;28;20467;-81
2021/11/09 11:11:47;;;;;;;25.17;14.00;;;358.90;2329.60;;;;;;4962014;28;20376;-78
2021/11/09 11:14:29;;;;;;;15.40;9.25;;;358.80;2329.60;;;;;;4961960;28;20495;-77
2021/11/09 11:17:03;;;;;;;26.30;14.55;;;358.70;2329.60;;;;;;4945587;28;20039;-76
2021/11/09 11:19:37;;;;;;;27.75;15.35;;;358.60;2329.60;;;;;;4961769;28;20070;-75
2021/11/09 11:22:06;;;;;;;20.42;12.45;;;358.50;2329.60;;;;;;4940749;28;20666;-76
2021/11/09 11:24:33;;;;;;;16.98;9.10;;;358.60;2329.60;;;;;;4960872;28;20129;-75
2021/11/09 11:26:59;;;;;;;16.30;9.70;;;358.50;2329.60;;;;;;4974682;28;20030;-75
2021/11/09 11:29:34;;;;;;;16.73;10.00;;;358.50;2329.60;;;;;;4960500;28;20031;-76
2021/11/09 11:32:01;;;;;;;19.75;10.23;;;358.70;2329.60;;;;;;4972220;28;20051;-77
2021/11/09 11:34:29;;;;;;;21.83;12.10;;;359.20;2329.60;;;;;;4970344;28;20023;-77
2021/11/09 11:36:56;;;;;;;17.38;9.60;;;384.20;2329.60;;;;;;4942997;28;20035;-75
2021/11/09 11:39:25;;;;;;;11.10;7.50;;;384.40;2329.60;;;;;;4959243;28;20019;-76
2021/11/09 11:42:00;;;;;;;12.88;8.73;;;384.30;2329.60;;;;;;4960560;28;20023;-76
2021/11/09 11:44:28;;;;;;;20.48;8.68;;;384.10;2329.60;;;;;;4988985;28;20084;-76
2021/11/09 11:47:18;;;;;;;15.02;9.13;;;359.30;2329.60;;;;;;4991596;28;20050;-77
2021/11/09 11:50:08;;;;;;;17.58;8.88;;;359.10;2329.60;;;;;;4973877;28;20053;-75
2021/11/09 11:52:50;;;;;;;15.98;9.95;;;358.80;2329.60;;;;;;4912642;29;20091;-78
2021/11/09 11:55:25;;;;;;;17.13;9.82;;;358.60;2329.60;;;;;;4897199;29;20062;-75
2021/11/09 11:58:04;;;;;;;13.23;8.38;;;359.10;2329.60;;;;;;4912802;29;20408;-75
2021/11/09 12:00:43;;;;;;;12.13;7.80;;;384.00;2329.60;;;;;;4912966;29;20421;-75
2021/11/09 12:03:24;;;;;;;15.05;7.65;;;384.40;2329.60;;;;;;4913186;29;20035;-75
2021/11/09 12:05:58;;;;;;;16.13;8.30;;;384.50;2329.60;;;;;;4911474;29;20028;-80
2021/11/09 12:08:43;;;;;;;15.00;7.93;;;384.60;2329.60;;;;;;4904982;29;20122;-77
2021/11/09 12:11:35;;;;;;;13.77;8.02;;;384.80;2329.60;;;;;;4915902;29;20123;-77
2021/11/09 12:14:08;;;;;;;14.55;8.57;;;384.90;2329.60;;;;;;4889541;29;20048;-79
2021/11/09 12:16:39;;;;;;;11.52;7.22;;;384.70;2329.60;;;;;;4931385;29;20063;-79
2021/11/09 12:19:05;;;;;;;17.15;8.13;;;384.70;2329.60;;;;;;4919556;29;20027;-79
2021/11/09 12:21:34;;;;;;;15.70;8.00;;;384.70;2329.60;;;;;;4917502;29;20024;-79
2021/11/09 12:24:12;;;;;;;17.98;8.95;;;384.50;2329.60;;;;;;4913137;29;20477;-83
2021/11/09 12:26:42;;;;;;;15.30;6.68;;;384.40;2329.60;;;;;;4915281;29;20144;-81
2021/11/09 12:29:36;;;;;;;17.15;7.90;;;384.40;2329.60;;;;;;4941755;28;20094;-77
2021/11/09 12:32:24;;;;;;;10.98;6.70;;;384.50;2329.60;;;;;;5000051;28;20034;-85
2021/11/09 12:35:17;;;;;;;11.52;7.30;;;384.50;2329.60;;;;;;4974514;28;20390;-86
2021/11/09 12:38:07;;;;;;;12.82;6.15;;;384.50;2329.60;;;;;;4987182;28;20041;-84
2021/11/09 12:40:36;;;;;;;12.45;5.68;;;384.10;2329.60;;;;;;4918375;29;20040;-84
2021/11/09 12:43:50;;;;;;;14.45;6.57;;;359.30;2329.60;;;;;;4911079;29;20119;-82
2021/11/09 12:46:43;;;;;;;12.27;6.85;;;384.00;2329.60;;;;;;4892812;29;20056;-85
2021/11/09 12:49:21;;;;;;;11.10;6.45;;;359.20;2329.60;;;;;;4879305;29;20033;-75
2021/11/09 12:51:49;;;;;;;13.07;6.35;;;358.90;2329.60;;;;;;4866664;29;20049;-75
2021/11/09 12:54:23;;;;;;;13.90;6.90;;;358.70;2329.60;;;;;;4876224;29;20041;-77
2021/11/09 12:56:52;;;;;;;15.13;6.80;;;358.90;2329.60;;;;;;4861495;29;20174;-76
2021/11/09 13:05:01;;;;;;;10.95;5.38;;;358.90;2329.60;;;;;;4859859;29;20098;-75
2021/11/09 13:09:58;;;;;;;11.38;6.10;;;358.90;2329.60;;;;;;4860420;29;20077;-78
2021/11/09 13:12:25;;;;;;;16.13;6.90;;;358.80;2329.60;;;;;;4860968;29;20133;-79
2021/11/09 13:14:59;;;;;;;9.40;4.95;;;358.70;2329.60;;;;;;4843364;29;20033;-80
2021/11/09 13:17:38;;;;;;;13.05;6.70;;;358.80;2329.60;;;;;;4895559;29;20035;-75
2021/11/09 13:20:16;;;;;;;10.30;6.22;;;358.80;2329.60;;;;;;4933375;29;20031;-77
2021/11/09 13:22:58;;;;;;;13.45;7.38;;;358.80;2329.60;;;;;;4943268;28;20039;-84
2021/11/09 13:25:40;;;;;;;9.95;5.30;;;358.90;2329.60;;;;;;4930393;29;20495;-77
2021/11/09 13:28:28;;;;;;;9.68;5.20;;;358.80;2329.60;;;;;;4932122;29;20083;-75
2021/11/09 13:31:00;;;;;;;13.82;6.15;;;358.80;2329.60;;;;;;4919917;29;20499;-76
2021/11/09 13:33:28;;;;;;;12.73;6.80;;;358.80;2329.60;;;;;;4932896;29;20031;-77
2021/11/09 13:35:56;;;;;;;12.65;6.35;;;358.80;2329.60;;;;;;4950705;28;20077;-84
2021/11/09 13:38:24;;;;;;;14.00;6.28;;;358.70;2329.60;;;;;;4986064;28;20106;-81
2021/11/09 13:40:50;;;;;;;18.27;8.85;;;358.80;2329.60;;;;;;4984735;28;20383;-75
2021/11/09 13:43:20;;;;;;;20.88;10.93;;;358.70;2329.60;;;;;;4985738;28;20050;-82
2021/11/09 13:45:54;;;;;;;18.63;9.15;;;358.60;2329.60;;;;;;4972854;28;20070;-79
2021/11/09 13:48:21;;;;;;;24.35;13.73;;;358.60;2329.60;;;;;;4979411;28;20580;-85
2021/11/09 13:50:53;;;;;;;13.23;8.13;;;358.40;2329.60;;;;;;4983173;28;20034;-75
2021/11/09 13:53:25;;;;;;;13.02;7.25;;;333.70;2329.60;;;;;;4985219;28;20030;-79
2021/11/09 13:55:51;;;;;;;28.85;10.30;;;358.50;2329.60;;;;;;4977933;28;20054;-86
2021/11/09 13:58:17;;;;;;;16.05;8.73;;;358.40;2329.60;;;;;;4979328;28;20061;-79
2021/11/09 14:00:49;;;;;;;19.77;9.50;;;358.50;2329.60;;;;;;4980830;28;20077;-76
2021/11/09 14:03:27;;;;;;;14.82;8.85;;;333.60;2329.60;;;;;;4973066;28;20126;-76
2021/11/09 14:09:18;;;;;;;17.77;9.55;;;358.40;2329.60;;;;;;4915694;29;20080;-75
2021/11/09 14:16:54;;;;;;;21.02;11.88;;;358.50;2329.60;;;;;;4934320;29;20027;-76
2021/11/09 14:19:40;;;;;;;21.73;12.27;;;358.50;2329.60;;;;;;4932290;29;20476;-76
2021/11/09 14:22:15;;;;;;;23.20;11.00;;;358.50;2329.60;;;;;;4924552;29;20502;-75
2021/11/09 14:24:42;;;;;;;16.77;10.18;;;358.50;2329.60;;;;;;4924898;29;20036;-75
2021/11/09 14:27:14;;;;;;;15.38;10.90;;;358.50;2329.60;;;;;;4933357;29;20455;-75
2021/11/09 14:30:07;;;;;;;18.25;11.55;;;358.40;2329.60;;;;;;4933964;29;20091;-75
2021/11/09 14:32:37;;;;;;;18.92;11.40;;;358.40;2329.60;;;;;;4927151;29;20124;-77
2021/11/09 14:35:24;;;;;;;17.33;10.93;;;333.70;2329.60;;;;;;4929576;29;20118;-78
2021/11/09 14:40:42;;;;;;;33.78;21.17;;;333.70;2329.60;;;;;;4922225;29;20118;-75
2021/11/09 14:43:22;;;;;;;80.40;50.55;;;333.70;2329.60;;;;;;4930613;29;20031;-77
2021/11/09 14:48:27;;;;;;;54.22;34.28;;;333.50;2329.60;;;;;;4998430;28;20022;-75
2021/11/09 14:53:34;;;;;;;39.90;24.15;;;333.20;2329.60;;;;;;4997184;28;20125;-75
2021/11/09 14:56:12;;;;;;;44.90;26.08;;;333.20;2329.60;;;;;;4999837;28;20118;-76
2021/11/09 14:58:51;;;;;;;42.83;28.67;;;333.10;2329.60;;;;;;5001549;28;20043;-75
2021/11/09 15:01:42;;;;;;;65.03;37.33;;;333.00;2329.60;;;;;;5002145;28;20053;-77